createdAt,value
2022-09-22T00:01:18.841Z,7.80
2022-09-22T00:03:52.114Z,7.90
2022-09-22T00:06:52.161Z,7.90
2022-09-22T00:09:21.269Z,7.90
2022-09-22T00:11:51.838Z,7.90
2022-09-22T00:14:24.488Z,8.00
2022-09-22T00:17:01.211Z,7.90
2022-09-22T00:19:33.996Z,7.90
2022-09-22T00:22:01.275Z,7.90
2022-09-22T00:24:29.461Z,7.90
2022-09-22T00:26:58.337Z,7.80
2022-09-22T00:29:26.986Z,7.80
2022-09-22T00:31:54.661Z,7.70
2022-09-22T00:34:24.355Z,7.70
2022-09-22T00:36:51.805Z,7.70
2022-09-22T00:39:19.470Z,7.60
2022-09-22T00:41:49.345Z,7.50
2022-09-22T00:44:41.108Z,7.50
2022-09-22T00:47:33.859Z,7.50
2022-09-22T00:50:27.243Z,7.40
2022-09-22T00:53:11.047Z,7.40
2022-09-22T00:55:45.045Z,7.40
2022-09-22T00:58:20.255Z,7.50
2022-09-22T01:00:47.492Z,7.60
2022-09-22T01:03:24.036Z,7.60
2022-09-22T01:05:57.379Z,7.60
2022-09-22T01:08:25.478Z,7.50
2022-09-22T01:10:55.360Z,7.50
2022-09-22T01:13:36.803Z,7.40
2022-09-22T01:16:36.643Z,7.40
2022-09-22T01:19:47.180Z,7.30
2022-09-22T01:22:53.796Z,7.30
2022-09-22T01:26:10.566Z,7.30
2022-09-22T01:29:23.553Z,7.30
2022-09-22T01:32:28.364Z,7.30
2022-09-22T01:35:05.943Z,7.20
2022-09-22T01:37:59.350Z,7.10
2022-09-22T01:40:42.994Z,7.10
2022-09-22T01:43:22.147Z,7.10
2022-09-22T01:45:50.715Z,7.10
2022-09-22T01:48:22.949Z,7.10
2022-09-22T01:51:06.087Z,7.10
2022-09-22T01:53:44.201Z,7.00
2022-09-22T01:56:16.399Z,7.10
2022-09-22T01:58:49.702Z,7.10
2022-09-22T02:01:24.351Z,7.10
2022-09-22T02:04:24.197Z,7.10
2022-09-22T02:06:57.893Z,7.00
2022-09-22T02:09:27.155Z,7.00
2022-09-22T02:11:54.184Z,7.00
2022-09-22T02:14:21.359Z,7.10
2022-09-22T02:16:48.386Z,7.00
2022-09-22T02:19:37.854Z,7.00
2022-09-22T02:22:05.748Z,6.90
2022-09-22T02:24:41.680Z,6.80
2022-09-22T02:27:30.314Z,6.70
2022-09-22T02:30:05.089Z,6.70
2022-09-22T02:32:36.156Z,6.70
2022-09-22T02:35:04.304Z,6.70
2022-09-22T02:37:50.909Z,6.70
2022-09-22T02:40:58.713Z,6.70
2022-09-22T02:43:37.701Z,6.70
2022-09-22T02:46:39.042Z,6.70
2022-09-22T02:49:10.496Z,6.50
2022-09-22T02:51:38.830Z,6.30
2022-09-22T02:54:06.686Z,6.30
2022-09-22T02:56:33.928Z,6.40
2022-09-22T02:59:00.914Z,6.40
2022-09-22T03:01:27.938Z,6.20
2022-09-22T03:03:55.015Z,6.30
2022-09-22T03:06:22.101Z,6.30
2022-09-22T03:08:49.141Z,6.40
2022-09-22T03:11:16.181Z,6.50
2022-09-22T03:13:43.173Z,6.50
2022-09-22T03:16:10.340Z,6.40
2022-09-22T03:18:37.532Z,6.40
2022-09-22T03:21:05.059Z,6.30
2022-09-22T03:23:32.161Z,6.20
2022-09-22T03:25:59.165Z,6.10
2022-09-22T03:28:26.357Z,6.00
2022-09-22T03:30:53.441Z,6.00
2022-09-22T03:33:20.536Z,6.00
2022-09-22T03:35:47.987Z,6.00
2022-09-22T03:38:14.931Z,6.00
2022-09-22T03:40:42.013Z,5.90
2022-09-22T03:43:13.059Z,5.90
2022-09-22T03:45:43.106Z,5.80
2022-09-22T03:48:10.127Z,5.80
2022-09-22T03:50:37.311Z,5.80
2022-09-22T03:53:04.388Z,5.90
2022-09-22T03:55:43.453Z,5.90
2022-09-22T03:58:10.534Z,5.90
2022-09-22T04:00:37.540Z,5.90
2022-09-22T04:03:04.576Z,5.90
2022-09-22T04:05:31.615Z,5.80
2022-09-22T04:07:58.670Z,5.90
2022-09-22T04:10:26.451Z,5.80
2022-09-22T04:12:53.478Z,5.80
2022-09-22T04:15:20.490Z,5.80
2022-09-22T04:17:48.551Z,5.60
2022-09-22T04:20:17.026Z,5.60
2022-09-22T04:22:44.095Z,5.60
2022-09-22T04:25:11.100Z,5.60
2022-09-22T04:27:38.159Z,5.60
2022-09-22T04:30:06.043Z,5.60
2022-09-22T04:32:33.129Z,5.70
2022-09-22T04:35:00.201Z,5.70
2022-09-22T04:37:27.259Z,5.60
2022-09-22T04:39:55.572Z,5.60
2022-09-22T04:42:22.575Z,5.60
2022-09-22T04:44:49.807Z,5.60
2022-09-22T04:47:16.788Z,5.70
2022-09-22T04:49:43.899Z,5.60
2022-09-22T04:52:10.944Z,5.60
2022-09-22T04:54:37.918Z,5.70
2022-09-22T04:57:05.067Z,5.70
2022-09-22T04:59:32.137Z,5.80
2022-09-22T05:01:59.373Z,5.80
2022-09-22T05:04:26.424Z,5.80
2022-09-22T05:06:53.496Z,5.80
2022-09-22T05:09:21.110Z,5.80
2022-09-22T05:11:51.122Z,5.80
2022-09-22T05:14:21.597Z,5.80
2022-09-22T05:16:51.280Z,5.80
2022-09-22T05:19:18.376Z,5.80
2022-09-22T05:21:45.411Z,5.80
2022-09-22T05:24:12.478Z,5.70
2022-09-22T05:26:39.519Z,5.70
2022-09-22T05:29:06.663Z,5.60
2022-09-22T05:31:33.728Z,5.60
2022-09-22T05:34:00.898Z,5.50
2022-09-22T05:36:27.932Z,5.60
2022-09-22T05:38:54.899Z,5.70
2022-09-22T05:41:21.946Z,5.70
2022-09-22T05:43:50.216Z,5.70
2022-09-22T05:46:17.306Z,5.70
2022-09-22T05:48:44.463Z,5.90
2022-09-22T05:51:11.581Z,6.00
2022-09-22T05:53:38.820Z,6.00
2022-09-22T05:56:06.053Z,6.10
2022-09-22T05:58:33.133Z,6.20
2022-09-22T06:01:00.298Z,6.10
2022-09-22T06:03:27.380Z,6.20
2022-09-22T06:05:54.396Z,6.30
2022-09-22T06:08:21.478Z,6.40
2022-09-22T06:10:51.409Z,6.40
2022-09-22T06:13:18.549Z,6.60
2022-09-22T06:15:49.130Z,6.60
2022-09-22T06:18:22.067Z,6.80
2022-09-22T06:20:51.612Z,6.90
2022-09-22T06:23:19.224Z,7.00
2022-09-22T06:25:46.233Z,7.00
2022-09-22T06:28:16.706Z,7.10
2022-09-22T06:30:43.838Z,7.20
2022-09-22T06:33:11.754Z,7.30
2022-09-22T06:35:43.071Z,7.30
2022-09-22T06:38:14.949Z,7.40
2022-09-22T06:40:43.175Z,7.50
2022-09-22T06:43:22.765Z,7.60
2022-09-22T06:45:51.415Z,7.70
2022-09-22T06:48:23.864Z,7.80
2022-09-22T06:50:53.375Z,7.70
2022-09-22T06:53:23.662Z,7.80
2022-09-22T06:55:53.515Z,7.90
2022-09-22T06:58:22.452Z,8.00
2022-09-22T07:00:50.685Z,8.10
2022-09-22T07:03:26.380Z,8.30
2022-09-22T07:06:02.304Z,8.40
2022-09-22T07:08:31.535Z,8.40
2022-09-22T07:11:04.385Z,8.60
2022-09-22T07:13:32.696Z,8.80
2022-09-22T07:16:09.828Z,9.10
2022-09-22T07:18:41.535Z,9.20
2022-09-22T07:21:21.272Z,9.30
2022-09-22T07:23:50.086Z,9.50
2022-09-22T07:26:20.067Z,9.60
2022-09-22T07:28:50.436Z,9.80
2022-09-22T07:31:17.986Z,9.90
2022-09-22T07:33:46.247Z,10.20
2022-09-22T07:36:19.270Z,10.40
2022-09-22T07:38:49.288Z,10.50
2022-09-22T07:41:24.859Z,10.70
2022-09-22T07:43:56.287Z,10.70
2022-09-22T07:46:23.956Z,10.80
2022-09-22T07:48:51.148Z,10.80
2022-09-22T07:51:23.459Z,11.00
2022-09-22T07:54:04.645Z,11.20
2022-09-22T07:56:31.960Z,11.40
2022-09-22T07:58:59.007Z,11.10
2022-09-22T08:01:32.295Z,11.20
2022-09-22T08:03:59.323Z,11.30
2022-09-22T08:06:27.369Z,11.40
2022-09-22T08:08:56.739Z,11.70
2022-09-22T08:11:30.068Z,11.80
2022-09-22T08:14:00.207Z,12.00
2022-09-22T08:16:31.101Z,12.00
2022-09-22T08:19:02.462Z,12.10
2022-09-22T08:21:35.433Z,12.20
2022-09-22T08:24:03.912Z,12.40
2022-09-22T08:26:31.273Z,12.50
2022-09-22T08:28:58.721Z,12.80
2022-09-22T08:31:27.623Z,12.90
2022-09-22T08:33:55.929Z,12.80
2022-09-22T08:36:25.903Z,13.00
2022-09-22T08:38:53.218Z,13.20
2022-09-22T08:42:09.686Z,13.40
2022-09-22T08:44:53.624Z,13.70
2022-09-22T08:48:08.296Z,13.90
2022-09-22T08:51:18.864Z,14.10
2022-09-22T08:53:51.577Z,14.30
2022-09-22T08:56:46.719Z,13.70
2022-09-22T08:59:21.306Z,14.00
2022-09-22T09:02:41.313Z,14.20
2022-09-22T09:05:49.662Z,14.20
2022-09-22T09:08:53.613Z,14.40
2022-09-22T09:12:01.328Z,14.00
2022-09-22T09:15:02.375Z,14.30
2022-09-22T09:17:33.564Z,14.70
2022-09-22T09:20:22.072Z,14.80
2022-09-22T09:22:56.408Z,15.30
2022-09-22T09:25:41.385Z,15.80
2022-09-22T09:28:42.315Z,16.00
2022-09-22T09:31:38.714Z,16.20
2022-09-22T09:34:09.870Z,16.70
2022-09-22T09:36:41.407Z,16.30
2022-09-22T09:39:34.321Z,16.20
2022-09-22T09:42:06.997Z,15.40
2022-09-22T09:44:40.195Z,15.30
2022-09-22T09:48:03.093Z,15.80
2022-09-22T09:50:32.356Z,15.60
2022-09-22T09:53:00.307Z,14.90
2022-09-22T09:55:27.951Z,14.90
2022-09-22T09:58:45.746Z,14.70
2022-09-22T10:01:14.707Z,14.70
2022-09-22T10:03:47.805Z,15.40
2022-09-22T10:06:24.366Z,16.20
2022-09-22T10:08:51.957Z,15.70
2022-09-22T10:11:32.120Z,16.30
2022-09-22T10:13:59.374Z,16.50
2022-09-22T10:16:28.865Z,15.90
2022-09-22T10:19:23.397Z,16.40
2022-09-22T10:21:50.579Z,16.60
2022-09-22T10:24:33.244Z,17.10
2022-09-22T10:27:02.630Z,17.00
2022-09-22T10:29:32.725Z,16.70
2022-09-22T10:32:15.803Z,17.20
2022-09-22T10:34:48.412Z,17.50
2022-09-22T10:37:20.470Z,17.60
2022-09-22T10:39:50.461Z,17.60
2022-09-22T10:42:37.236Z,17.40
2022-09-22T10:45:15.578Z,18.40
2022-09-22T10:48:20.929Z,18.30
2022-09-22T10:51:29.496Z,17.70
2022-09-22T10:54:35.170Z,18.60
2022-09-22T10:57:10.293Z,19.90
2022-09-22T11:00:29.517Z,19.40
2022-09-22T11:03:42.455Z,19.80
2022-09-22T11:06:59.239Z,18.70
2022-09-22T11:10:14.483Z,19.00
2022-09-22T11:13:21.595Z,19.10
2022-09-22T11:19:41.261Z,18.90
2022-09-22T12:05:11.543Z,22.90
2022-09-22T12:07:46.130Z,23.80
2022-09-22T12:10:24.342Z,23.50
2022-09-22T12:12:53.206Z,22.90
2022-09-22T12:15:31.083Z,22.50
2022-09-22T12:18:29.487Z,22.50
2022-09-22T12:21:33.922Z,23.50
2022-09-22T12:24:04.651Z,23.30
2022-09-22T12:26:34.246Z,24.10
2022-09-22T12:29:21.440Z,23.70
2022-09-22T12:31:51.826Z,24.50
2022-09-22T12:34:30.102Z,24.40
2022-09-22T12:37:10.562Z,24.90
2022-09-22T12:39:46.936Z,24.40
2022-09-22T12:42:35.901Z,24.50
2022-09-22T12:45:35.303Z,24.80
2022-09-22T12:48:33.372Z,25.20
2022-09-22T12:51:34.500Z,24.80
2022-09-22T12:54:27.040Z,23.90
2022-09-22T12:57:21.901Z,25.20
2022-09-22T12:59:57.957Z,26.10
2022-09-22T13:02:31.090Z,25.60
2022-09-22T13:05:46.981Z,24.90
2022-09-22T13:08:18.641Z,24.50
2022-09-22T13:11:06.141Z,26.20
2022-09-22T13:13:47.389Z,27.70
2022-09-22T13:16:35.784Z,29.00
2022-09-22T13:19:04.355Z,29.50
2022-09-22T13:21:33.609Z,29.60
2022-09-22T13:24:03.015Z,30.00
2022-09-22T13:26:35.857Z,30.20
2022-09-22T13:29:19.677Z,29.90
2022-09-22T13:31:55.658Z,29.90
2022-09-22T13:34:36.544Z,29.00
2022-09-22T13:37:09.962Z,27.70
2022-09-22T13:39:49.901Z,29.50
2022-09-22T13:42:23.637Z,30.00
2022-09-22T13:45:24.034Z,30.70
2022-09-22T13:47:53.711Z,29.80
2022-09-22T13:50:22.704Z,30.10
2022-09-22T13:52:51.474Z,30.00
2022-09-22T13:55:45.063Z,30.60
2022-09-22T13:58:16.656Z,31.50
2022-09-22T14:03:39.501Z,30.30
2022-09-22T14:06:11.911Z,31.80
2022-09-22T14:08:39.401Z,30.10
2022-09-22T14:11:15.555Z,29.30
2022-09-22T14:14:00.355Z,30.10
2022-09-22T14:17:06.651Z,30.80
2022-09-22T14:19:42.996Z,31.60
2022-09-22T14:22:22.911Z,31.70
2022-09-22T14:24:54.094Z,32.30
2022-09-22T14:27:42.721Z,31.20
2022-09-22T14:30:20.005Z,30.90
2022-09-22T14:33:01.067Z,31.70
2022-09-22T14:35:37.745Z,30.30
2022-09-22T14:38:21.919Z,30.80
2022-09-22T14:40:54.570Z,30.70
2022-09-22T14:43:42.480Z,30.60
2022-09-22T14:46:28.626Z,31.80
2022-09-22T14:48:55.783Z,31.50
2022-09-22T14:51:25.323Z,31.40
2022-09-22T14:54:01.673Z,30.40
2022-09-22T14:56:33.887Z,31.00
2022-09-22T14:59:27.690Z,30.70
2022-09-22T15:02:15.387Z,31.00
2022-09-22T15:04:48.674Z,32.30
2022-09-22T15:07:24.884Z,32.90
2022-09-22T15:09:55.985Z,32.30
2022-09-22T15:12:48.650Z,31.00
2022-09-22T15:15:27.859Z,31.40
2022-09-22T15:18:19.595Z,31.60
2022-09-22T15:21:29.301Z,32.70
2022-09-22T15:23:59.054Z,31.10
2022-09-22T15:26:28.103Z,29.70
2022-09-22T15:28:59.154Z,31.20
2022-09-22T15:31:29.864Z,31.30
2022-09-22T15:34:02.969Z,30.90
2022-09-22T15:36:32.464Z,32.00
2022-09-22T15:39:06.671Z,30.70
2022-09-22T15:41:34.991Z,31.50
2022-09-22T15:44:03.358Z,30.70
2022-09-22T15:46:38.023Z,30.90
2022-09-22T15:49:21.176Z,29.90
2022-09-22T15:51:51.644Z,29.90
2022-09-22T15:54:23.620Z,29.40
2022-09-22T15:56:56.042Z,29.20
2022-09-22T15:59:26.763Z,29.60
2022-09-22T16:01:59.531Z,30.10
2022-09-22T16:04:31.575Z,29.40
2022-09-22T16:07:06.155Z,29.90
2022-09-22T16:09:33.220Z,29.20
2022-09-22T16:12:00.574Z,29.10
2022-09-22T16:14:27.619Z,29.10
2022-09-22T16:16:54.681Z,28.70
2022-09-22T16:19:21.748Z,28.20
2022-09-22T16:21:51.329Z,28.20
2022-09-22T16:24:18.991Z,27.90
2022-09-22T16:26:46.017Z,27.80
2022-09-22T16:29:13.249Z,27.40
2022-09-22T16:31:40.353Z,26.90
2022-09-22T16:34:09.124Z,26.80
2022-09-22T16:36:37.174Z,26.70
2022-09-22T16:39:04.729Z,26.10
2022-09-22T16:41:33.580Z,25.80
2022-09-22T16:44:01.809Z,25.30
2022-09-22T16:46:30.608Z,25.10
2022-09-22T16:49:07.349Z,25.00
2022-09-22T16:51:47.574Z,24.20
2022-09-22T16:54:15.553Z,22.90
2022-09-22T16:56:46.154Z,21.20
2022-09-22T16:59:18.761Z,19.60
2022-09-22T17:01:46.398Z,19.00
2022-09-22T17:04:16.455Z,18.40
2022-09-22T17:06:44.149Z,18.00
2022-09-22T17:09:12.285Z,17.50
2022-09-22T17:11:42.548Z,17.20
2022-09-22T17:14:13.705Z,16.80
2022-09-22T17:16:42.805Z,16.70
2022-09-22T17:19:19.617Z,16.60
2022-09-22T17:21:48.833Z,16.30
2022-09-22T17:24:16.903Z,16.20
2022-09-22T17:26:47.935Z,15.90
2022-09-22T17:29:23.527Z,15.70
2022-09-22T17:31:59.488Z,15.50
2022-09-22T17:34:28.669Z,15.40
2022-09-22T17:36:56.421Z,15.20
2022-09-22T17:39:24.306Z,15.00
2022-09-22T17:41:51.334Z,14.90
2022-09-22T17:44:21.573Z,14.80
2022-09-22T17:47:09.097Z,14.70
2022-09-22T17:49:55.155Z,14.60
2022-09-22T17:52:41.285Z,14.50
2022-09-22T17:55:15.023Z,14.40
2022-09-22T17:57:43.998Z,14.30
2022-09-22T18:00:22.315Z,14.10
2022-09-22T18:02:52.690Z,14.10
2022-09-22T18:05:24.573Z,13.90
2022-09-22T18:07:53.845Z,13.80
2022-09-22T18:10:21.045Z,13.80
2022-09-22T18:12:48.136Z,13.90
2022-09-22T18:15:17.303Z,13.90
2022-09-22T18:17:44.785Z,14.00
2022-09-22T18:20:22.728Z,14.00
2022-09-22T18:22:50.171Z,13.80
2022-09-22T18:25:19.646Z,13.60
2022-09-22T18:27:48.572Z,13.60
2022-09-22T18:30:19.700Z,13.50
2022-09-22T18:32:48.168Z,13.50
2022-09-22T18:35:15.697Z,13.40
2022-09-22T18:37:42.890Z,13.20
2022-09-22T18:40:12.579Z,13.10
2022-09-22T18:42:41.555Z,12.90
2022-09-22T18:45:11.237Z,12.90
2022-09-22T18:47:40.944Z,13.00
2022-09-22T18:50:08.711Z,12.90
2022-09-22T18:52:36.766Z,12.80
2022-09-22T18:55:04.894Z,12.70
2022-09-22T18:57:31.937Z,12.60
2022-09-22T19:00:01.841Z,12.70
2022-09-22T19:02:29.115Z,12.80
2022-09-22T19:04:56.225Z,12.50
2022-09-22T19:07:42.140Z,12.60
2022-09-22T19:10:13.013Z,12.60
2022-09-22T19:12:40.997Z,12.30
2022-09-22T19:15:13.953Z,12.30
2022-09-22T19:17:45.632Z,12.30
2022-09-22T19:20:18.525Z,12.20
2022-09-22T19:22:47.049Z,12.10
2022-09-22T19:25:14.167Z,12.10
2022-09-22T19:27:41.266Z,12.00
2022-09-22T19:30:09.821Z,11.90
2022-09-22T19:32:37.754Z,11.90
2022-09-22T19:35:06.411Z,11.80
2022-09-22T19:37:33.525Z,11.70
2022-09-22T19:40:00.614Z,11.70
2022-09-22T19:42:28.794Z,11.50
2022-09-22T19:44:55.959Z,11.40
2022-09-22T19:47:23.874Z,11.30
2022-09-22T19:49:50.941Z,11.30
2022-09-22T19:52:18.029Z,11.30
2022-09-22T19:54:45.060Z,11.30
2022-09-22T19:57:13.299Z,11.20
2022-09-22T19:59:40.434Z,11.20
2022-09-22T20:02:15.322Z,11.10
2022-09-22T20:04:42.669Z,11.10
2022-09-22T20:07:11.004Z,11.10
2022-09-22T20:09:38.366Z,11.10
2022-09-22T20:12:05.893Z,11.10
2022-09-22T20:14:33.140Z,11.10
2022-09-22T20:17:06.353Z,11.00
2022-09-22T20:19:37.023Z,11.00
2022-09-22T20:22:27.988Z,11.00
2022-09-22T20:24:58.999Z,10.80
2022-09-22T20:27:36.873Z,10.80
2022-09-22T20:30:04.917Z,10.70
2022-09-22T20:32:32.280Z,10.60
2022-09-22T20:34:59.582Z,10.50
2022-09-22T20:37:26.667Z,10.40
2022-09-22T20:39:54.444Z,10.40
2022-09-22T20:42:21.681Z,10.40
2022-09-22T20:44:49.263Z,10.40
2022-09-22T20:47:21.985Z,10.40
2022-09-22T20:49:51.971Z,10.40
2022-09-22T20:52:20.750Z,10.50
2022-09-22T20:54:48.417Z,10.30
2022-09-22T20:57:15.634Z,10.20
2022-09-22T20:59:46.320Z,10.30
2022-09-22T21:02:14.969Z,10.20
2022-09-22T21:04:42.212Z,10.20
2022-09-22T21:07:09.536Z,10.10
2022-09-22T21:09:54.964Z,10.00
2022-09-22T21:12:26.221Z,10.00
2022-09-22T21:14:57.207Z,10.10
2022-09-22T21:17:24.337Z,10.10
2022-09-22T21:19:51.474Z,10.10
2022-09-22T21:22:18.520Z,10.00
2022-09-22T21:24:47.123Z,9.90
2022-09-22T21:27:14.523Z,9.90
2022-09-22T21:29:42.377Z,9.80
2022-09-22T21:32:09.645Z,9.80
2022-09-22T21:34:36.833Z,9.80
2022-09-22T21:37:05.209Z,9.80
2022-09-22T21:39:32.201Z,9.70
2022-09-22T21:41:59.251Z,9.60
2022-09-22T21:44:26.311Z,9.70
2022-09-22T21:46:54.303Z,9.60
2022-09-22T21:49:21.345Z,9.50
2022-09-22T21:51:48.444Z,9.50
2022-09-22T21:54:18.392Z,9.50
2022-09-22T21:56:46.267Z,9.40
2022-09-22T21:59:13.947Z,9.40
2022-09-22T22:01:42.437Z,9.30
2022-09-22T22:04:13.804Z,9.30
2022-09-22T22:06:43.212Z,9.40
2022-09-22T22:09:18.425Z,9.30
2022-09-22T22:11:56.875Z,9.40
2022-09-22T22:14:25.930Z,9.20
2022-09-22T22:16:54.928Z,9.40
2022-09-22T22:19:25.953Z,9.60
2022-09-22T22:21:53.907Z,9.70
2022-09-22T22:24:32.017Z,9.70
2022-09-22T22:27:02.474Z,9.50
2022-09-22T22:29:31.957Z,9.40
2022-09-22T22:31:59.355Z,9.30
2022-09-22T22:34:26.472Z,9.40
2022-09-22T22:36:58.242Z,9.40
2022-09-22T22:39:25.634Z,9.30
2022-09-22T22:41:55.424Z,9.20
2022-09-22T22:44:22.975Z,9.10
2022-09-22T22:46:50.187Z,9.20
2022-09-22T22:49:17.374Z,9.10
2022-09-22T22:51:44.493Z,9.00
2022-09-22T22:54:12.421Z,8.90
2022-09-22T22:56:42.337Z,8.90
2022-09-22T22:59:10.323Z,8.80
2022-09-22T23:01:37.670Z,8.70
2022-09-22T23:04:07.510Z,8.70
2022-09-22T23:06:40.195Z,8.70
2022-09-22T23:09:10.208Z,8.70
2022-09-22T23:11:40.039Z,8.70
2022-09-22T23:14:11.593Z,8.80
2022-09-22T23:16:46.487Z,8.70
2022-09-22T23:19:18.237Z,8.60
2022-09-22T23:21:45.637Z,8.60
2022-09-22T23:24:17.170Z,8.60
2022-09-22T23:26:45.628Z,8.40
2022-09-22T23:29:12.820Z,8.40
2022-09-22T23:31:39.929Z,8.30
2022-09-22T23:34:06.940Z,8.20
2022-09-22T23:36:33.968Z,8.20
2022-09-22T23:39:04.014Z,8.20
2022-09-22T23:41:33.233Z,8.20
2022-09-22T23:44:00.736Z,8.30
2022-09-22T23:46:28.057Z,8.30
2022-09-22T23:48:55.816Z,8.30
2022-09-22T23:51:23.324Z,8.20
2022-09-22T23:53:50.384Z,8.20
2022-09-22T23:56:17.529Z,8.20
2022-09-22T23:58:45.472Z,8.10
